Time;durP1;ratioP1;P1;durP2;ratioP2;P2;SDS_P1;SDS_P2;PMS_P1;PMS_P2;Temp;Humidity;BMP_temperature;BMP_pressure;BME280_temperature;BME280_humidity;BME280_pressure;Samples;Min_cycle;Max_cycle;Signal;HPM_P1;HPM_P2
2024/01/16 00:01:32;;;;;;;33.85;18.17;;;1.60;99.90;;;;;;5095251;28;20031;-54
2024/01/16 00:03:58;;;;;;;35.05;18.70;;;1.60;99.90;;;;;;5095109;28;20048;-54
2024/01/16 00:06:24;;;;;;;30.95;16.92;;;1.60;99.90;;;;;;5095233;28;20462;-54
2024/01/16 00:08:50;;;;;;;44.50;22.20;;;1.50;99.90;;;;;;5095253;28;20038;-54
2024/01/16 00:11:15;;;;;;;39.15;22.00;;;1.50;99.90;;;;;;5098719;28;20040;-54
2024/01/16 00:13:41;;;;;;;46.30;23.65;;;1.50;99.90;;;;;;5098996;28;20052;-54
2024/01/16 00:16:07;;;;;;;43.13;23.02;;;1.50;99.90;;;;;;5098808;28;20110;-54
2024/01/16 00:18:34;;;;;;;38.25;20.50;;;1.50;99.90;;;;;;5098434;28;20032;-54
2024/01/16 00:21:02;;;;;;;33.70;18.63;;;1.70;99.90;;;;;;5098907;28;20020;-54
2024/01/16 00:23:31;;;;;;;32.85;18.08;;;1.70;99.90;;;;;;5098807;28;20058;-54
2024/01/16 00:25:57;;;;;;;29.77;16.20;;;1.70;99.90;;;;;;5098401;28;20466;-54
2024/01/16 00:28:23;;;;;;;28.05;15.68;;;1.80;99.90;;;;;;5098691;28;20031;-54
2024/01/16 00:30:49;;;;;;;33.42;18.13;;;1.70;99.90;;;;;;5098715;28;20099;-54
2024/01/16 00:33:14;;;;;;;46.60;24.88;;;1.70;99.90;;;;;;5098591;28;20032;-54
2024/01/16 00:35:41;;;;;;;46.10;24.00;;;1.70;99.90;;;;;;5098512;28;20024;-54
2024/01/16 00:38:06;;;;;;;41.50;20.83;;;1.70;99.90;;;;;;5098162;28;20036;-54
2024/01/16 00:40:32;;;;;;;25.02;14.70;;;1.70;99.90;;;;;;5098236;28;20024;-54
2024/01/16 00:42:58;;;;;;;22.98;14.40;;;1.70;99.90;;;;;;5098616;28;20020;-54
2024/01/16 00:45:24;;;;;;;36.65;18.65;;;1.80;99.90;;;;;;5098325;28;20115;-54
2024/01/16 00:47:50;;;;;;;29.67;16.98;;;1.60;99.90;;;;;;5098079;28;20024;-54
2024/01/16 00:50:16;;;;;;;31.73;16.42;;;1.70;99.90;;;;;;5098344;28;20020;-54
2024/01/16 00:52:41;;;;;;;32.45;17.70;;;1.70;99.90;;;;;;5098244;28;20035;-54
2024/01/16 00:55:07;;;;;;;34.58;19.38;;;1.70;99.90;;;;;;5097795;28;20111;-54
2024/01/16 00:57:33;;;;;;;30.98;18.00;;;1.60;99.90;;;;;;5097982;28;20129;-54
2024/01/16 00:59:59;;;;;;;31.63;19.02;;;1.60;99.90;;;;;;5098298;28;20517;-54
2024/01/16 01:02:25;;;;;;;39.35;21.08;;;1.60;99.90;;;;;;5097773;28;20028;-54
2024/01/16 01:04:51;;;;;;;35.97;18.25;;;1.50;99.90;;;;;;5098054;28;20103;-54
2024/01/16 01:07:17;;;;;;;38.00;18.45;;;1.60;99.90;;;;;;5097726;28;20044;-54
2024/01/16 01:09:43;;;;;;;90.32;40.70;;;1.60;99.90;;;;;;5097601;28;20107;-54
2024/01/16 01:12:09;;;;;;;90.03;42.25;;;1.60;99.90;;;;;;5097909;28;20381;-54
2024/01/16 01:14:35;;;;;;;80.00;37.38;;;1.60;99.90;;;;;;5097764;28;20450;-54
2024/01/16 01:17:01;;;;;;;60.55;27.90;;;1.60;99.90;;;;;;5097104;28;20059;-55
2024/01/16 01:19:27;;;;;;;45.97;23.30;;;1.60;99.90;;;;;;5097372;28;20058;-54
2024/01/16 01:21:54;;;;;;;64.78;34.05;;;1.70;99.90;;;;;;5097314;28;20490;-54
2024/01/16 01:24:20;;;;;;;38.28;23.45;;;1.70;99.90;;;;;;5097340;28;20123;-54
2024/01/16 01:26:46;;;;;;;37.33;20.83;;;1.90;99.90;;;;;;5097439;28;20056;-54
2024/01/16 01:29:11;;;;;;;36.88;21.08;;;1.80;99.90;;;;;;5097466;28;20043;-54
2024/01/16 01:31:37;;;;;;;33.50;19.50;;;1.80;99.90;;;;;;5097236;28;20027;-54
2024/01/16 01:34:04;;;;;;;37.97;21.17;;;1.70;99.90;;;;;;5097346;28;20024;-54
2024/01/16 01:36:30;;;;;;;78.22;38.92;;;1.70;99.90;;;;;;5097241;28;20466;-54
2024/01/16 01:38:56;;;;;;;115.43;53.40;;;1.70;99.90;;;;;;5097159;28;20028;-54
2024/01/16 01:41:21;;;;;;;68.45;34.60;;;1.70;99.90;;;;;;5097252;28;20047;-54
2024/01/16 01:43:47;;;;;;;47.60;26.23;;;1.60;99.90;;;;;;5097204;28;20036;-54
2024/01/16 01:46:19;;;;;;;50.78;26.48;;;1.60;99.90;;;;;;5096855;28;20377;-54
2024/01/16 01:48:47;;;;;;;56.15;28.05;;;1.60;99.90;;;;;;5097042;28;20481;-54
2024/01/16 01:51:16;;;;;;;53.55;28.60;;;1.50;99.90;;;;;;5097227;28;20232;-54
2024/01/16 01:53:43;;;;;;;49.17;26.88;;;1.50;99.90;;;;;;5096801;28;20036;-54
2024/01/16 01:56:14;;;;;;;47.17;26.13;;;1.60;99.90;;;;;;5096945;28;20507;-54
2024/01/16 01:58:40;;;;;;;;;;;1.60;99.90;;;;;;5097261;28;20105;-54
2024/01/16 02:01:09;;;;;;;58.45;32.13;;;1.60;99.90;;;;;;5096644;28;19908;-54
2024/01/16 02:03:43;;;;;;;59.90;31.63;;;1.50;99.90;;;;;;5096869;28;20055;-54
2024/01/16 02:06:11;;;;;;;63.25;32.60;;;1.60;99.90;;;;;;5096906;28;20051;-54
2024/01/16 02:08:37;;;;;;;68.30;35.00;;;1.60;99.90;;;;;;5096409;28;20036;-54
2024/01/16 02:11:03;;;;;;;64.72;34.55;;;1.60;99.90;;;;;;5096610;28;20359;-54
2024/01/16 02:13:29;;;;;;;84.00;41.33;;;1.60;99.90;;;;;;5096548;28;20379;-54
2024/01/16 02:15:54;;;;;;;78.97;39.15;;;1.50;99.90;;;;;;5096380;28;20122;-54
2024/01/16 02:18:20;;;;;;;69.60;36.17;;;1.50;99.90;;;;;;5096274;28;20051;-54
2024/01/16 02:20:47;;;;;;;53.25;28.17;;;1.50;99.90;;;;;;5096474;28;20048;-54
2024/01/16 02:23:15;;;;;;;47.38;27.15;;;1.50;99.90;;;;;;5096299;28;20023;-54
2024/01/16 02:25:44;;;;;;;53.13;29.33;;;1.50;99.90;;;;;;5096275;28;20024;-54
2024/01/16 02:28:10;;;;;;;55.25;30.58;;;1.60;99.90;;;;;;5096237;28;20032;-54
2024/01/16 02:30:36;;;;;;;50.33;29.48;;;1.50;99.90;;;;;;5096097;28;20431;-54
2024/01/16 02:33:03;;;;;;;43.63;24.25;;;1.50;99.90;;;;;;5095445;28;20040;-54
2024/01/16 02:35:29;;;;;;;57.38;29.65;;;1.50;99.90;;;;;;5096097;28;20111;-54
2024/01/16 02:37:55;;;;;;;48.85;28.02;;;1.50;99.90;;;;;;5095778;28;20071;-54
2024/01/16 02:40:21;;;;;;;49.20;28.27;;;1.50;99.90;;;;;;5096128;28;20024;-54
2024/01/16 02:42:46;;;;;;;45.30;25.40;;;1.50;99.90;;;;;;5096166;28;20016;-54
2024/01/16 02:45:13;;;;;;;45.92;26.02;;;1.40;99.90;;;;;;5095657;28;20385;-55
2024/01/16 02:47:38;;;;;;;46.30;25.13;;;1.40;99.90;;;;;;5096030;28;20032;-54
2024/01/16 02:50:05;;;;;;;42.25;25.85;;;1.40;99.90;;;;;;5096096;28;20031;-54
2024/01/16 02:52:31;;;;;;;48.15;25.73;;;1.50;99.90;;;;;;5093310;28;20025;-54
2024/01/16 02:54:57;;;;;;;44.28;24.33;;;1.50;99.90;;;;;;5095792;28;20027;-54
2024/01/16 02:57:22;;;;;;;41.70;23.23;;;1.50;99.90;;;;;;5095634;28;20527;-54
2024/01/16 02:59:48;;;;;;;39.35;22.33;;;1.50;99.90;;;;;;5095627;28;20016;-54
2024/01/16 03:02:14;;;;;;;39.58;22.08;;;1.60;99.90;;;;;;5095701;28;20024;-54
2024/01/16 03:04:41;;;;;;;42.85;23.75;;;1.50;99.90;;;;;;5095888;28;20493;-54
2024/01/16 03:07:06;;;;;;;48.13;25.33;;;1.60;99.90;;;;;;5095472;28;20057;-54
2024/01/16 03:09:32;;;;;;;43.17;24.15;;;1.50;99.90;;;;;;5095611;28;20024;-54
2024/01/16 03:12:00;;;;;;;46.22;25.10;;;1.50;99.90;;;;;;5095802;28;20031;-54
2024/01/16 03:14:26;;;;;;;50.70;26.30;;;1.50;99.90;;;;;;5095186;28;20502;-54
2024/01/16 03:16:51;;;;;;;41.25;24.52;;;1.40;99.90;;;;;;5095452;28;20028;-55
2024/01/16 03:19:17;;;;;;;42.30;23.42;;;1.40;99.90;;;;;;5095570;28;20066;-54
2024/01/16 03:21:43;;;;;;;25.27;16.30;;;1.40;99.90;;;;;;5095455;28;20020;-54
2024/01/16 03:24:10;;;;;;;25.10;14.55;;;1.50;99.90;;;;;;5095222;28;20052;-54
2024/01/16 03:26:38;;;;;;;20.67;13.75;;;1.50;99.90;;;;;;5095514;28;20063;-54
2024/01/16 03:29:04;;;;;;;21.17;12.32;;;1.60;99.90;;;;;;5095302;28;20035;-54
2024/01/16 03:31:30;;;;;;;19.50;11.80;;;1.60;99.90;;;;;;5095593;28;20085;-54
2024/01/16 03:33:56;;;;;;;19.90;12.10;;;1.60;99.90;;;;;;5095531;28;20020;-54
2024/01/16 03:36:22;;;;;;;20.48;11.20;;;1.60;99.90;;;;;;5094977;28;20051;-54
2024/01/16 03:38:47;;;;;;;18.98;11.02;;;1.60;99.90;;;;;;5095315;28;20040;-54
2024/01/16 03:41:13;;;;;;;15.57;9.90;;;1.60;99.90;;;;;;5095488;28;20016;-54
2024/01/16 03:43:40;;;;;;;12.25;6.97;;;1.60;99.90;;;;;;5097205;28;20450;-54
2024/01/16 03:46:06;;;;;;;13.82;6.97;;;1.70;99.90;;;;;;5099324;28;20281;-55
2024/01/16 03:48:32;;;;;;;15.00;8.52;;;1.60;99.90;;;;;;5099524;28;20039;-54
2024/01/16 03:50:58;;;;;;;18.08;10.38;;;1.70;99.90;;;;;;5099453;28;20119;-54
2024/01/16 03:53:24;;;;;;;28.83;15.38;;;1.70;99.90;;;;;;5099095;28;20032;-54
2024/01/16 03:55:50;;;;;;;30.30;16.60;;;1.80;99.90;;;;;;5099406;28;20028;-54
2024/01/16 03:58:16;;;;;;;45.22;23.80;;;1.80;99.90;;;;;;5098983;28;20087;-54
2024/01/16 04:00:43;;;;;;;38.08;19.88;;;1.80;99.90;;;;;;5099029;28;20035;-54
2024/01/16 04:03:08;;;;;;;31.55;17.83;;;1.70;99.90;;;;;;5099157;28;20477;-54
2024/01/16 04:05:34;;;;;;;31.10;17.30;;;1.60;99.90;;;;;;5099217;28;20036;-54
2024/01/16 04:08:00;;;;;;;33.90;18.00;;;1.70;99.90;;;;;;5098483;28;20070;-54
2024/01/16 04:10:26;;;;;;;28.52;16.27;;;1.70;99.90;;;;;;5098919;28;20028;-54
2024/01/16 04:12:52;;;;;;;42.95;18.20;;;1.70;99.90;;;;;;5099002;28;20016;-54
2024/01/16 04:15:18;;;;;;;27.90;15.82;;;1.70;99.90;;;;;;5098690;28;20028;-54
2024/01/16 04:17:44;;;;;;;33.40;17.20;;;1.60;99.90;;;;;;5098715;28;20024;-54
2024/01/16 04:20:10;;;;;;;27.42;14.98;;;1.60;99.90;;;;;;5098911;28;20035;-54
2024/01/16 04:22:36;;;;;;;27.63;15.00;;;1.50;99.90;;;;;;5098252;28;20040;-54
2024/01/16 04:25:04;;;;;;;27.55;15.93;;;1.50;99.90;;;;;;5098808;28;20426;-54
2024/01/16 04:27:31;;;;;;;29.23;17.20;;;1.60;99.90;;;;;;5098660;28;20342;-54
2024/01/16 04:29:57;;;;;;;28.38;16.33;;;1.60;99.90;;;;;;5098478;28;20069;-54
2024/01/16 04:32:23;;;;;;;25.38;15.20;;;1.60;99.90;;;;;;5098663;28;20020;-54
2024/01/16 04:34:49;;;;;;;26.20;13.98;;;1.60;99.90;;;;;;5098558;28;20043;-54
2024/01/16 04:37:15;;;;;;;37.30;19.15;;;1.60;99.90;;;;;;5098093;28;20028;-54
2024/01/16 04:39:40;;;;;;;42.45;20.17;;;1.50;99.90;;;;;;5098437;28;20028;-54
2024/01/16 04:42:06;;;;;;;71.80;39.80;;;1.50;99.90;;;;;;5098460;28;20020;-54
2024/01/16 04:44:32;;;;;;;50.10;28.52;;;1.60;99.90;;;;;;5098088;28;20350;-54
2024/01/16 04:46:58;;;;;;;50.45;27.05;;;1.60;99.90;;;;;;5098265;28;20099;-54
2024/01/16 04:49:24;;;;;;;52.50;27.95;;;1.50;99.90;;;;;;5098194;28;20123;-54
2024/01/16 04:51:50;;;;;;;61.90;34.97;;;1.50;99.90;;;;;;5097773;28;20032;-54
2024/01/16 04:54:16;;;;;;;59.35;35.55;;;1.50;99.90;;;;;;5098123;28;20376;-54
2024/01/16 04:56:41;;;;;;;65.80;35.75;;;1.40;99.90;;;;;;5097517;28;20032;-54
2024/01/16 04:59:07;;;;;;;59.33;33.72;;;1.50;99.90;;;;;;5097521;28;20193;-54
2024/01/16 05:01:33;;;;;;;57.22;33.67;;;1.50;99.90;;;;;;5098118;28;20038;-54
2024/01/16 05:03:59;;;;;;;49.15;29.08;;;1.50;99.90;;;;;;5097966;28;20085;-54
2024/01/16 05:06:25;;;;;;;49.08;27.40;;;1.50;99.90;;;;;;5097728;28;20036;-54
2024/01/16 05:08:50;;;;;;;48.17;26.40;;;1.60;99.90;;;;;;5097800;28;20085;-54
2024/01/16 05:11:16;;;;;;;42.75;24.85;;;1.70;99.90;;;;;;5097903;28;20050;-54
2024/01/16 05:13:42;;;;;;;45.28;27.08;;;1.60;99.90;;;;;;5097438;28;20043;-54
2024/01/16 05:16:08;;;;;;;46.47;25.83;;;1.60;99.90;;;;;;5097784;28;20028;-54
2024/01/16 05:18:34;;;;;;;39.30;23.10;;;1.50;99.90;;;;;;5097481;28;20077;-54
2024/01/16 05:21:00;;;;;;;45.88;23.63;;;1.40;99.90;;;;;;5097472;28;20020;-54
2024/01/16 05:23:26;;;;;;;38.38;21.17;;;1.50;99.90;;;;;;5097396;28;20035;-55
2024/01/16 05:25:51;;;;;;;44.53;24.30;;;1.60;99.90;;;;;;5097635;28;20027;-54
2024/01/16 05:28:17;;;;;;;42.47;22.88;;;1.50;99.90;;;;;;5097314;28;20512;-54
2024/01/16 05:30:44;;;;;;;73.85;33.33;;;1.50;99.90;;;;;;5097503;28;20137;-54
2024/01/16 05:33:09;;;;;;;79.15;33.60;;;1.50;99.90;;;;;;5097418;28;20540;-54
2024/01/16 05:35:36;;;;;;;55.35;28.15;;;1.50;99.90;;;;;;5097087;28;20111;-54
2024/01/16 05:38:03;;;;;;;54.83;28.40;;;1.50;99.90;;;;;;5095595;28;20145;-54
2024/01/16 05:40:28;;;;;;;109.28;46.60;;;1.50;99.90;;;;;;5097290;28;20024;-54
2024/01/16 05:42:56;;;;;;;127.18;56.33;;;1.60;99.90;;;;;;5096939;28;20106;-54
2024/01/16 05:45:22;;;;;;;132.95;54.17;;;1.60;99.90;;;;;;5097168;28;20079;-54
2024/01/16 05:47:47;;;;;;;154.93;62.50;;;1.60;99.90;;;;;;5097448;28;20024;-54
2024/01/16 05:50:16;;;;;;;94.55;45.50;;;1.70;99.90;;;;;;5096890;28;20055;-54
2024/01/16 05:52:42;;;;;;;87.65;45.08;;;1.70;99.90;;;;;;5097313;28;20032;-54
2024/01/16 05:55:08;;;;;;;91.97;46.65;;;1.70;99.90;;;;;;5096995;28;20032;-54
2024/01/16 05:57:34;;;;;;;75.32;41.28;;;1.70;99.90;;;;;;5096571;28;20050;-54
2024/01/16 06:00:03;;;;;;;81.53;43.97;;;1.60;99.90;;;;;;5097020;28;20477;-54
2024/01/16 06:02:31;;;;;;;87.05;45.72;;;1.60;99.90;;;;;;5096645;28;20096;-54
2024/01/16 06:04:57;;;;;;;105.88;55.90;;;1.60;99.90;;;;;;5096600;28;20119;-54
2024/01/16 06:07:23;;;;;;;87.47;45.58;;;1.50;99.90;;;;;;5096634;28;20024;-54
2024/01/16 06:09:49;;;;;;;93.15;48.42;;;1.50;99.90;;;;;;5096641;28;20024;-54
2024/01/16 06:12:14;;;;;;;94.88;53.25;;;1.50;99.90;;;;;;5096426;28;20024;-54
2024/01/16 06:14:40;;;;;;;96.43;51.72;;;1.60;99.90;;;;;;5096759;28;20024;-54
2024/01/16 06:17:06;;;;;;;98.50;54.95;;;1.70;99.90;;;;;;5095233;28;20043;-54
2024/01/16 06:19:32;;;;;;;102.32;58.58;;;1.60;99.90;;;;;;5095434;28;20062;-54
2024/01/16 06:21:59;;;;;;;119.53;73.57;;;1.70;99.90;;;;;;5096411;28;20024;-54
2024/01/16 06:24:25;;;;;;;135.38;84.57;;;1.70;99.90;;;;;;5095860;28;20039;-54
2024/01/16 06:26:51;;;;;;;123.00;74.70;;;1.60;99.90;;;;;;5095696;28;20415;-54
2024/01/16 06:29:17;;;;;;;107.93;60.85;;;1.60;99.90;;;;;;5094273;28;20040;-54
2024/01/16 06:31:43;;;;;;;100.32;56.40;;;1.50;99.90;;;;;;5095315;28;20051;-54
2024/01/16 06:34:09;;;;;;;101.95;56.10;;;1.50;99.90;;;;;;5089295;28;20438;-54
2024/01/16 06:36:34;;;;;;;91.35;50.65;;;1.50;99.90;;;;;;5085387;28;20032;-54
2024/01/16 06:39:00;;;;;;;107.65;54.53;;;1.50;99.90;;;;;;5095603;28;20020;-54
2024/01/16 06:41:26;;;;;;;110.50;58.28;;;1.50;99.90;;;;;;5095505;28;20497;-54
2024/01/16 06:43:52;;;;;;;107.78;57.78;;;1.50;99.90;;;;;;5095480;28;20618;-54
2024/01/16 06:46:18;;;;;;;121.63;60.20;;;1.60;99.90;;;;;;5095530;28;20020;-54
2024/01/16 06:48:43;;;;;;;104.78;56.08;;;1.60;99.90;;;;;;5095272;28;20028;-54
2024/01/16 06:51:10;;;;;;;102.90;56.13;;;1.60;99.90;;;;;;5095872;28;20458;-54
2024/01/16 06:53:36;;;;;;;105.13;55.42;;;1.60;99.90;;;;;;5095303;28;20060;-55
2024/01/16 06:56:03;;;;;;;109.93;58.00;;;1.60;99.90;;;;;;5095632;28;20073;-54
2024/01/16 06:58:29;;;;;;;108.35;55.97;;;1.60;99.90;;;;;;5089681;28;20025;-54
2024/01/16 07:00:55;;;;;;;118.03;56.22;;;1.60;99.90;;;;;;5083750;28;20035;-54
2024/01/16 07:03:21;;;;;;;117.05;57.78;;;1.70;99.90;;;;;;5075567;28;20055;-54
2024/01/16 07:05:46;;;;;;;108.70;55.42;;;1.70;99.90;;;;;;5086216;28;20032;-54
2024/01/16 07:08:12;;;;;;;109.10;55.05;;;1.70;99.90;;;;;;5090432;28;20027;-54
2024/01/16 07:10:38;;;;;;;94.22;49.67;;;1.70;99.90;;;;;;5090437;28;20056;-54
2024/01/16 07:13:04;;;;;;;93.78;50.60;;;1.70;99.90;;;;;;5085970;28;20032;-54
2024/01/16 07:15:30;;;;;;;101.72;51.80;;;1.90;99.90;;;;;;5087463;28;20482;-54
2024/01/16 07:17:55;;;;;;;96.88;55.10;;;1.90;99.90;;;;;;5083450;28;20035;-54
2024/01/16 07:20:21;;;;;;;105.38;53.78;;;1.90;99.90;;;;;;5088955;28;20035;-54
2024/01/16 07:22:47;;;;;;;103.93;55.33;;;2.00;99.90;;;;;;5090925;28;20073;-54
2024/01/16 07:25:13;;;;;;;111.47;60.55;;;2.00;99.90;;;;;;5094042;28;20043;-54
2024/01/16 07:27:39;;;;;;;112.95;60.80;;;2.00;99.90;;;;;;5094366;28;20020;-54
2024/01/16 07:30:06;;;;;;;113.20;62.80;;;2.00;99.90;;;;;;5095122;28;20084;-54
2024/01/16 07:32:32;;;;;;;116.18;60.85;;;2.00;99.90;;;;;;5093945;28;20028;-54
2024/01/16 07:34:58;;;;;;;118.18;63.08;;;2.00;99.90;;;;;;5094793;28;20027;-54
2024/01/16 07:37:23;;;;;;;113.15;62.55;;;2.10;99.90;;;;;;5095123;28;20032;-54
2024/01/16 07:39:49;;;;;;;124.95;65.45;;;2.10;99.90;;;;;;5095497;28;20051;-54
2024/01/16 07:42:15;;;;;;;130.32;61.67;;;2.20;99.90;;;;;;5094701;28;20440;-54
2024/01/16 07:44:41;;;;;;;133.30;64.82;;;2.20;99.90;;;;;;5093904;28;20466;-54
2024/01/16 07:47:07;;;;;;;141.38;68.93;;;2.30;99.90;;;;;;5095069;28;20036;-54
2024/01/16 07:49:34;;;;;;;139.98;69.25;;;2.40;99.90;;;;;;5095006;28;20060;-54
2024/01/16 07:52:00;;;;;;;158.23;83.35;;;2.40;99.90;;;;;;5095159;28;20054;-54
2024/01/16 07:54:26;;;;;;;162.32;82.57;;;2.40;99.90;;;;;;5095115;28;20036;-54
2024/01/16 07:56:51;;;;;;;137.60;75.97;;;2.30;99.90;;;;;;5094519;28;20031;-54
2024/01/16 07:59:18;;;;;;;145.25;73.60;;;2.30;99.90;;;;;;5094747;28;20040;-54
2024/01/16 08:01:44;;;;;;;128.02;68.13;;;2.50;99.90;;;;;;5088753;28;20051;-54
2024/01/16 08:04:09;;;;;;;148.80;79.28;;;2.70;99.90;;;;;;5093846;28;20028;-54
2024/01/16 08:06:36;;;;;;;135.68;73.75;;;2.70;99.90;;;;;;5095401;28;20028;-54
2024/01/16 08:09:02;;;;;;;124.57;64.65;;;2.90;99.90;;;;;;5095512;28;20032;-54
2024/01/16 08:11:29;;;;;;;107.35;57.45;;;2.80;99.90;;;;;;5094804;28;20051;-54
2024/01/16 08:13:55;;;;;;;101.88;55.03;;;2.90;99.90;;;;;;5095066;28;20137;-54
2024/01/16 08:16:21;;;;;;;127.68;62.90;;;2.90;99.90;;;;;;5094937;28;20035;-54
2024/01/16 08:18:47;;;;;;;123.75;58.78;;;3.00;99.90;;;;;;5093530;28;20028;-54
2024/01/16 08:21:13;;;;;;;136.07;66.53;;;3.10;99.90;;;;;;5095418;28;20032;-54
2024/01/16 08:23:39;;;;;;;152.50;69.32;;;3.20;99.90;;;;;;5095153;28;20390;-55
2024/01/16 08:26:05;;;;;;;193.02;93.10;;;3.20;99.90;;;;;;5094688;28;20028;-54
2024/01/16 08:28:31;;;;;;;197.75;101.10;;;3.30;99.90;;;;;;5095122;28;20035;-54
2024/01/16 08:30:58;;;;;;;184.40;89.63;;;3.40;99.90;;;;;;5096986;28;20033;-54
2024/01/16 08:33:24;;;;;;;114.25;58.40;;;3.50;99.90;;;;;;5094550;28;20092;-54
2024/01/16 08:35:50;;;;;;;104.55;57.15;;;3.50;99.90;;;;;;5080962;28;20123;-54
2024/01/16 08:38:16;;;;;;;98.63;52.88;;;3.60;99.90;;;;;;5090492;28;20121;-54
2024/01/16 08:40:42;;;;;;;88.10;46.50;;;3.80;99.90;;;;;;5077542;28;20374;-54
2024/01/16 08:43:07;;;;;;;84.50;45.40;;;3.90;99.90;;;;;;5080287;28;20043;-54
2024/01/16 08:45:34;;;;;;;96.13;49.45;;;4.10;99.90;;;;;;5095961;28;20325;-54
2024/01/16 08:48:00;;;;;;;102.13;52.15;;;4.00;99.90;;;;;;5097840;28;20027;-54
2024/01/16 08:50:26;;;;;;;107.75;57.70;;;4.00;99.90;;;;;;5097799;28;20470;-54
2024/01/16 08:52:51;;;;;;;116.32;61.25;;;4.20;99.90;;;;;;5098063;28;20501;-54
2024/01/16 08:55:17;;;;;;;125.82;63.65;;;4.30;99.90;;;;;;5097275;28;20397;-54
2024/01/16 08:57:43;;;;;;;151.02;72.22;;;4.30;99.90;;;;;;5097691;28;20028;-54
2024/01/16 09:00:10;;;;;;;144.65;73.43;;;4.40;99.90;;;;;;5097922;28;20028;-54
2024/01/16 09:02:36;;;;;;;130.88;66.60;;;4.50;99.90;;;;;;5097486;28;20032;-54
2024/01/16 09:05:02;;;;;;;137.68;70.60;;;4.60;99.90;;;;;;5097057;28;20040;-55
2024/01/16 09:07:28;;;;;;;142.52;71.30;;;4.50;99.90;;;;;;5096079;28;20020;-54
2024/01/16 09:09:54;;;;;;;138.43;69.75;;;4.50;99.90;;;;;;5088004;28;20031;-54
2024/01/16 09:12:20;;;;;;;136.43;72.10;;;4.70;99.90;;;;;;5081579;28;20024;-54
2024/01/16 09:14:46;;;;;;;137.98;71.25;;;5.00;99.90;;;;;;5090657;28;20115;-54
2024/01/16 09:17:12;;;;;;;148.80;78.28;;;5.80;99.90;;;;;;5089286;28;20105;-54
2024/01/16 09:19:38;;;;;;;137.75;71.53;;;6.50;99.90;;;;;;5096935;28;20043;-54
2024/01/16 09:22:04;;;;;;;141.20;74.07;;;7.20;99.90;;;;;;5097269;28;20028;-54
2024/01/16 09:24:30;;;;;;;156.18;75.63;;;7.60;99.90;;;;;;5094905;28;20030;-54
2024/01/16 09:26:58;;;;;;;132.40;67.07;;;8.00;99.60;;;;;;5091565;28;20111;-55
2024/01/16 09:29:24;;;;;;;132.32;68.68;;;8.00;99.10;;;;;;5089623;28;20091;-54
2024/01/16 09:31:50;;;;;;;139.50;74.75;;;8.10;98.00;;;;;;5089140;28;20024;-54
2024/01/16 09:34:17;;;;;;;119.25;66.70;;;8.60;98.20;;;;;;5094442;28;20028;-54
2024/01/16 09:36:43;;;;;;;124.78;63.97;;;9.70;95.70;;;;;;5090205;28;20081;-55
2024/01/16 09:39:13;;;;;;;122.20;65.70;;;10.10;92.30;;;;;;5084489;28;20070;-54
2024/01/16 09:41:41;;;;;;;122.78;68.63;;;10.70;91.90;;;;;;5096181;28;20020;-55
2024/01/16 09:44:07;;;;;;;110.03;59.90;;;11.80;89.50;;;;;;5095892;28;20107;-54
2024/01/16 09:46:37;;;;;;;99.78;54.95;;;11.90;84.20;;;;;;5095327;28;20355;-55
2024/01/16 09:49:03;;;;;;;95.72;54.25;;;12.10;83.50;;;;;;5095504;28;20039;-55
2024/01/16 09:51:29;;;;;;;91.68;53.00;;;12.30;81.70;;;;;;5089804;28;20060;-55
2024/01/16 09:53:55;;;;;;;97.95;56.80;;;12.50;75.80;;;;;;5080944;28;20089;-55
2024/01/16 09:56:24;;;;;;;95.95;57.10;;;12.50;75.40;;;;;;5095643;28;20535;-55
2024/01/16 09:58:55;;;;;;;104.05;56.60;;;12.90;74.00;;;;;;5096755;28;20055;-55
2024/01/16 10:01:21;;;;;;;;;;;12.80;75.00;;;;;;5097130;28;20032;-55
2024/01/16 10:03:47;;;;;;;99.68;58.13;;;13.40;70.00;;;;;;5095854;28;19908;-58
2024/01/16 10:06:15;;;;;;;90.20;52.25;;;12.90;70.20;;;;;;5096730;28;20369;-55
2024/01/16 10:08:41;;;;;;;81.07;46.97;;;13.50;69.10;;;;;;5096352;28;20107;-55
2024/01/16 10:11:08;;;;;;;92.57;56.63;;;13.90;69.40;;;;;;5096589;28;20107;-55
2024/01/16 10:13:35;;;;;;;89.25;51.85;;;13.30;66.50;;;;;;5096454;28;20028;-55
2024/01/16 10:16:01;;;;;;;88.07;52.63;;;13.60;65.80;;;;;;5095803;28;20442;-55
2024/01/16 10:18:33;;;;;;;104.65;57.30;;;13.40;66.10;;;;;;5095692;28;20046;-55
2024/01/16 10:20:59;;;;;;;96.38;55.00;;;13.40;64.20;;;;;;5096408;28;20039;-55
2024/01/16 10:23:28;;;;;;;91.47;56.88;;;13.20;64.60;;;;;;5095993;28;20044;-55
2024/01/16 10:26:11;;;;;;;100.55;58.15;;;13.50;61.40;;;;;;5096214;28;20104;-55
2024/01/16 10:28:42;;;;;;;97.55;55.42;;;13.50;68.90;;;;;;5075801;28;20036;-55
2024/01/16 10:31:11;;;;;;;;;;;14.10;61.50;;;;;;5075813;28;20032;-55
2024/01/16 10:33:39;;;;;;;86.40;53.35;;;14.10;63.90;;;;;;5075518;28;19908;-55
2024/01/16 10:36:12;;;;;;;94.18;52.92;;;14.00;59.60;;;;;;5075883;28;20069;-55
2024/01/16 10:38:45;;;;;;;86.68;50.58;;;14.30;59.30;;;;;;5074974;28;20032;-55
2024/01/16 10:41:17;;;;;;;81.78;49.00;;;14.60;56.90;;;;;;5075826;28;20091;-55
2024/01/16 10:43:44;;;;;;;83.25;50.45;;;15.50;52.40;;;;;;5075124;28;20486;-55
2024/01/16 10:46:15;;;;;;;82.18;49.15;;;14.80;56.70;;;;;;5091205;28;20385;-55
2024/01/16 10:48:44;;;;;;;;;;;14.90;53.50;;;;;;5084191;28;20030;-55
2024/01/16 10:51:17;;;;;;;79.18;48.13;;;15.40;51.30;;;;;;5094980;28;19908;-55
2024/01/16 10:53:44;;;;;;;68.80;41.67;;;14.50;54.60;;;;;;5094399;28;20063;-55
2024/01/16 10:56:12;;;;;;;61.05;38.45;;;13.70;55.20;;;;;;5092752;28;20020;-55
2024/01/16 10:58:41;;;;;;;48.08;31.17;;;15.40;52.10;;;;;;5089273;28;20035;-55
2024/01/16 11:01:16;;;;;;;70.55;41.08;;;15.00;46.70;;;;;;5086438;28;20067;-55
2024/01/16 11:03:50;;;;;;;69.53;42.45;;;15.70;49.00;;;;;;5093780;28;20028;-55
2024/01/16 11:06:17;;;;;;;77.50;44.17;;;15.80;51.00;;;;;;5085194;28;20062;-55
2024/01/16 11:08:47;;;;;;;66.70;41.15;;;15.70;48.90;;;;;;5089406;28;20020;-55
2024/01/16 11:11:15;;;;;;;52.22;32.80;;;15.50;49.20;;;;;;5089087;28;20103;-55
2024/01/16 11:13:44;;;;;;;45.30;28.35;;;16.40;44.00;;;;;;5075092;28;20037;-55
2024/01/16 11:16:13;;;;;;;51.13;32.45;;;16.40;42.40;;;;;;5076227;28;20381;-55
2024/01/16 11:18:39;;;;;;;45.72;29.38;;;16.00;44.40;;;;;;5095320;28;20126;-55
2024/01/16 11:21:09;;;;;;;42.15;24.63;;;16.20;44.80;;;;;;5094940;28;20038;-55
2024/01/16 11:23:36;;;;;;;42.35;24.40;;;16.80;42.70;;;;;;5092169;28;20067;-55
2024/01/16 11:26:35;;;;;;;48.42;20.95;;;17.30;36.80;;;;;;5095189;28;20048;-55
2024/01/16 11:29:27;;;;;;;40.78;20.80;;;17.10;37.40;;;;;;5095524;28;20111;-55
2024/01/16 11:31:53;;;;;;;33.42;21.15;;;15.70;38.70;;;;;;5094993;28;20141;-55
2024/01/16 11:34:41;;;;;;;48.45;23.23;;;15.30;38.00;;;;;;5095198;28;20078;-55
2024/01/16 11:37:28;;;;;;;19.67;10.07;;;16.00;40.40;;;;;;5089980;28;20035;-55
2024/01/16 11:40:20;;;;;;;35.10;16.20;;;17.70;35.10;;;;;;5094620;28;20115;-56
2024/01/16 11:42:47;;;;;;;28.13;13.75;;;16.90;39.00;;;;;;5094610;28;20635;-55
2024/01/16 11:45:29;;;;;;;30.85;13.35;;;17.30;33.90;;;;;;5095326;28;20024;-55
2024/01/16 11:48:10;;;;;;;21.90;9.20;;;16.60;35.60;;;;;;5094976;28;20072;-55
2024/01/16 11:50:36;;;;;;;16.20;8.68;;;17.30;33.20;;;;;;5095156;28;20116;-55
2024/01/16 11:53:02;;;;;;;13.45;8.73;;;17.00;33.20;;;;;;5094828;28;20094;-55
2024/01/16 11:55:33;;;;;;;42.90;15.00;;;16.90;32.30;;;;;;5085892;28;20028;-55
2024/01/16 11:58:08;;;;;;;;;;;16.20;32.60;;;;;;5074647;28;20033;-56
2024/01/16 12:00:36;;;;;;;30.42;10.82;;;16.20;35.30;;;;;;5074336;28;20358;-55
2024/01/16 12:03:04;;;;;;;46.15;11.45;;;15.90;34.40;;;;;;5078299;28;20021;-55
2024/01/16 12:05:29;;;;;;;29.70;8.50;;;16.30;32.60;;;;;;5093292;28;20111;-55
2024/01/16 12:07:55;;;;;;;12.45;6.20;;;16.30;32.00;;;;;;5097973;28;20085;-56
2024/01/16 12:10:23;;;;;;;27.48;7.93;;;15.60;30.40;;;;;;5099045;28;20028;-55
2024/01/16 12:12:51;;;;;;;10.13;5.95;;;15.70;31.00;;;;;;5098213;28;20066;-55
2024/01/16 12:15:21;;;;;;;26.58;7.70;;;15.50;30.00;;;;;;5088697;28;20048;-55
2024/01/16 12:17:53;;;;;;;28.50;7.70;;;14.90;32.10;;;;;;5077276;28;20119;-55
2024/01/16 12:20:21;;;;;;;32.10;7.10;;;15.90;30.60;;;;;;5078173;28;20115;-55
2024/01/16 12:23:03;;;;;;;18.50;5.93;;;16.30;33.40;;;;;;5092820;28;20024;-55
2024/01/16 12:25:31;;;;;;;21.13;6.32;;;15.30;29.90;;;;;;5094194;28;20305;-55
2024/01/16 12:27:57;;;;;;;20.70;6.97;;;16.20;30.00;;;;;;5096287;28;20030;-55
2024/01/16 12:30:28;;;;;;;18.58;5.07;;;16.50;28.30;;;;;;5098065;28;20063;-55
2024/01/16 12:33:10;;;;;;;19.80;6.20;;;16.20;27.30;;;;;;5098695;28;20032;-55